FW7023 Weather Reports


time (UTC)temp
C
wind
direction
speed
KPH
gust
KPH
rain 1hr
cm
rain 24hr
cm
rain mn
cm
humidity
%
barometer
mb
20210920064134 22 198 6.4 9.7 0.00 0.00 0.00 82 1010.1
20210920063633 22 225 0.0 0.0 0.00 0.00 0.00 82 1010.1
20210920063130 22 221 4.8 4.8 0.00 0.00 0.00 82 1010.0
20210920062629 22 187 1.6 3.2 0.00 0.00 0.00 83 1010.1
20210920062127 22 231 0.0 0.0 0.00 0.00 0.00 82 1010.2
20210920061626 22 219 0.0 0.0 0.00 0.00 0.00 82 1010.4
20210920061124 22 246 3.2 3.2 0.00 0.00 0.00 82 1010.5
20210920060622 22 203 0.0 1.6 0.00 0.00 0.00 82 1010.5
20210920060116 22 217 0.0 0.0 0.00 0.00 0.00 81 1010.6
20210920055614 22 203 1.6 1.6 0.00 0.00 0.00 81 1010.6
20210920055113 22 207 1.6 1.6 0.00 0.00 0.00 81 1010.4
20210920054613 22 214 0.0 1.6 0.00 0.00 0.00 81 1010.6
20210920054111 22 190 0.0 0.0 0.00 0.00 0.00 81 1010.5
20210920053603 22 221 0.0 0.0 0.00 0.00 0.00 80 1010.8
20210920053101 22 204 0.0 1.6 0.00 0.00 0.00 80 1010.8
20210920052558 22 207 0.0 0.0 0.00 0.00 0.00 80 1010.9
20210920052053 22 210 0.0 0.0 0.00 0.00 0.00 79 1011.0
20210920051553 22 208 1.6 1.6 0.00 0.00 0.00 79 1010.9
20210920051052 23 219 0.0 0.0 0.00 0.00 0.00 79 1010.7
20210920050545 23 202 1.6 1.6 0.00 0.00 0.00 78 1011.0
20210920050043 23 203 0.0 0.0 0.00 0.00 0.00 78 1010.8
20210920045542 23 200 1.6 3.2 0.00 0.00 0.00 78 1010.9
20210920045041 23 248 3.2 3.2 0.00 0.00 0.00 78 1010.9
20210920044534 23 215 1.6 1.6 0.00 0.00 0.00 78 1010.8
20210920044033 23 213 4.8 11.3 0.00 0.00 0.00 77 1010.9
20210920043522 23 217 1.6 3.2 0.00 0.00 0.00 77 1010.9
20210920043021 23 213 0.0 0.0 0.00 0.00 0.00 77 1011.0
20210920042520 23 237 3.2 4.8 0.00 0.00 0.00 77 1011.1
20210920042016 23 222 0.0 1.6 0.00 0.00 0.00 77 1011.2
20210920041516 23 213 4.8 8.0 0.00 0.00 0.00 77 1011.2
20210920041014 23 228 1.6 1.6 0.00 0.00 0.00 77 1011.2
20210920040514 23 184 0.0 3.2 0.00 0.00 0.00 77 1011.2
20210920040013 23 212 4.8 8.0 0.00 0.00 0.00 76 1011.1
20210920035512 23 219 4.8 8.0 0.00 0.00 0.00 76 1011.3
20210920035012 23 198 4.8 8.0 0.00 0.00 0.00 76 1011.4
20210920034510 23 38 1.6 1.6 0.00 0.00 0.00 76 1011.3
20210920034008 23 190 3.2 4.8 0.00 0.00 0.00 75 1011.2
20210920033508 24 350 1.6 3.2 0.00 0.00 0.00 75 1011.1
20210920033007 23 224 3.2 3.2 0.00 0.00 0.00 75 1011.1
20210920032502 24 206 0.0 0.0 0.00 0.00 0.00 75 1011.5
20210920032001 24 197 3.2 3.2 0.00 0.00 0.00 75 1011.2
20210920031500 24 146 1.6 3.2 0.00 0.00 0.00 74 1011.2
20210920030959 24 239 1.6 3.2 0.00 0.00 0.00 74 1011.4
20210920030458 24 181 3.2 3.2 0.00 0.00 0.00 74 1011.2
20210920025956 24 219 0.0 1.6 0.00 0.00 0.00 74 1011.6
20210920025456 24 206 0.0 0.0 0.00 0.00 0.00 74 1011.4
20210920024954 24 212 1.6 1.6 0.00 0.00 0.00 74 1011.3
20210920024453 24 186 1.6 1.6 0.00 0.00 0.00 75 1011.4
20210920023952 24 209 0.0 0.0 0.00 0.00 0.00 74 1011.6
20210920023452 24 217 0.0 0.0 0.00 0.00 0.00 74 1011.4
20210920022950 24 215 0.0 0.0 0.00 0.00 0.00 74 1011.4
20210920022447 24 203 0.0 0.0 0.00 0.00 0.00 74 1011.4
20210920021944 24 228 0.0 0.0 0.00 0.00 0.00 74 1011.3
20210920021443 24 166 1.6 1.6 0.00 0.00 0.00 74 1011.4
20210920020940 24 229 0.0 1.6 0.00 0.00 0.00 73 1011.3
20210920020440 25 217 0.0 1.6 0.00 0.00 0.00 74 1011.3
20210920015938 25 195 0.0 1.6 0.00 0.00 0.00 73 1011.4
20210920015437 25 229 1.6 1.6 0.00 0.00 0.00 73 1011.4
20210920014935 25 158 0.0 1.6 0.00 0.00 0.00 72 1011.3
20210920014435 25 281 0.0 0.0 0.00 0.00 0.00 72 1011.3
20210920013934 25 240 0.0 1.6 0.00 0.00 0.00 72 1011.1
20210920013433 25 204 0.0 0.0 0.00 0.00 0.00 71 1011.3
20210920012932 25 176 1.6 1.6 0.00 0.00 0.00 71 1011.4
20210920012431 25 178 0.0 1.6 0.00 0.00 0.00 70 1010.9
20210920011930 25 220 0.0 1.6 0.00 0.00 0.00 70 1011.0
20210920011429 25 193 1.6 1.6 0.00 0.00 0.00 70 1011.3
20210920010927 25 231 0.0 1.6 0.00 0.00 0.00 69 1011.0
20210920010425 26 220 1.6 1.6 0.00 0.00 0.00 69 1011.2
20210920005922 26 180 1.6 1.6 0.00 0.00 0.00 69 1011.3
20210920005421 26 217 0.0 1.6 0.00 0.00 0.00 68 1011.2
20210920004920 26 207 0.0 0.0 0.00 0.00 0.00 67 1010.9
20210920004418 26 198 1.6 1.6 0.00 0.00 0.00 67 1011.3
20210920003916 26 212 0.0 0.0 0.00 0.00 0.00 66 1011.0
20210920003415 26 210 0.0 0.0 0.00 0.00 0.00 66 1011.2
20210920002914 26 202 0.0 0.0 0.00 0.00 0.00 65 1011.2
20210920002412 26 224 1.6 3.2 0.00 0.00 0.00 64 1011.0
20210920001911 27 212 3.2 3.2 0.00 0.00 0.00 63 1011.3
20210920001408 27 215 1.6 1.6 0.00 0.00 0.00 63 1010.9
20210920000907 27 163 0.0 1.6 0.00 0.00 0.00 62 1011.0
20210920000407 27 205 0.0 1.6 0.00 0.00 0.00 61 1011.2
20210919235903 27 212 0.0 1.6 0.00 0.00 0.00 60 1011.2
20210919235401 27 182 3.2 3.2 0.00 0.00 0.00 59 1011.0
20210919234900 27 228 0.0 0.0 0.00 0.00 0.00 58 1011.1
20210919234400 28 204 4.8 9.7 0.00 0.00 0.00 58 1011.2
20210919233858 28 210 3.2 3.2 0.00 0.00 0.00 57 1011.3
20210919233358 28 209 6.4 8.0 0.00 0.00 0.00 57 1011.3
20210919232857 28 200 3.2 4.8 0.00 0.00 0.00 57 1011.2
20210919232353 28 214 3.2 4.8 0.00 0.00 0.00 58 1011.1
20210919231851 28 207 1.6 1.6 0.00 0.00 0.00 57 1011.1
20210919231352 28 177 4.8 8.0 0.00 0.00 0.00 57 1011.2
20210919230847 28 200 4.8 8.0 0.00 0.00 0.00 57 1011.1
20210919230343 28 230 6.4 9.7 0.00 0.00 0.00 57 1011.2
20210919225842 28 169 1.6 3.2 0.00 0.00 0.00 57 1011.2
20210919225339 28 209 3.2 3.2 0.00 0.00 0.00 58 1011.1
20210919224835 29 198 4.8 4.8 0.00 0.00 0.00 57 1011.2
20210919224334 29 251 4.8 8.0 0.00 0.00 0.00 56 1011.3
20210919223827 29 166 1.6 3.2 0.00 0.00 0.00 56 1011.3
20210919223323 30 236 6.4 8.0 0.00 0.00 0.00 55 1011.4
20210919222817 29 205 4.8 4.8 0.00 0.00 0.00 55 1011.3
20210919222316 29 131 6.4 8.0 0.00 0.00 0.00 56 1011.4
20210919221814 29 254 4.8 8.0 0.00 0.00 0.00 56 1011.4
20210919221312 30 218 0.0 1.6 0.00 0.00 0.00 56 1011.2
20210919220812 30 356 0.0 0.0 0.00 0.00 0.00 56 1011.3
20210919220309 30 202 11.3 12.9 0.00 0.00 0.00 54 1011.3
20210919215806 30 230 8.0 11.3 0.00 0.00 0.00 55 1011.1
20210919215306 30 223 4.8 8.0 0.00 0.00 0.00 55 1011.3
20210919214804 30 230 0.0 1.6 0.00 0.00 0.00 55 1011.4
20210919214303 30 236 0.0 1.6 0.00 0.00 0.00 55 1011.3
20210919213801 30 46 1.6 3.2 0.00 0.00 0.00 56 1011.5
20210919213259 30 220 6.4 9.7 0.00 0.00 0.00 54 1011.5
20210919212759 30 1 1.6 3.2 0.00 0.00 0.00 54 1011.6
20210919212258 30 176 4.8 8.0 0.00 0.00 0.00 53 1011.7
20210919211756 30 205 4.8 9.7 0.00 0.00 0.00 54 1011.5
20210919211255 30 36 3.2 4.8 0.00 0.00 0.00 55 1011.6
20210919210754 30 211 3.2 3.2 0.00 0.00 0.00 56 1011.8
20210919210252 30 223 1.6 3.2 0.00 0.00 0.00 55 1011.8
20210919205752 31 236 3.2 3.2 0.00 0.00 0.00 53 1011.7
20210919205250 31 43 3.2 4.8 0.00 0.00 0.00 51 1011.9
20210919204750 31 54 1.6 1.6 0.00 0.00 0.00 51 1012.1
20210919204248 32 177 9.7 11.3 0.00 0.00 0.00 50 1012.1
20210919203747 31 213 0.0 1.6 0.00 0.00 0.00 52 1012.0
20210919203246 31 194 3.2 3.2 0.00 0.00 0.00 52 1012.3
20210919202744 31 203 3.2 3.2 0.00 0.00 0.00 53 1012.2
20210919202244 31 290 3.2 4.8 0.00 0.00 0.00 52 1012.5
20210919201742 32 226 6.4 11.3 0.00 0.00 0.00 51 1012.5
20210919201241 31 257 0.0 1.6 0.00 0.00 0.00 51 1012.5
20210919200736 31 225 11.3 14.5 0.00 0.00 0.00 52 1012.6
20210919200236 31 123 4.8 8.0 0.00 0.00 0.00 51 1012.6
20210919195735 31 233 0.0 0.0 0.00 0.00 0.00 52 1012.9
20210919195234 31 46 4.8 8.0 0.00 0.00 0.00 51 1013.0
20210919194733 31 196 0.0 1.6 0.00 0.00 0.00 53 1013.0
20210919194229 31 31 8.0 11.3 0.00 0.00 0.00 52 1013.0
20210919193729 31 257 0.0 0.0 0.00 0.00 0.00 52 1013.0
20210919193228 31 207 4.8 8.0 0.00 0.00 0.00 53 1013.1
20210919192726 30 218 0.0 0.0 0.00 0.00 0.00 54 1013.2
20210919192224 30 228 1.6 1.6 0.00 0.00 0.00 54 1013.6
20210919191723 31 209 3.2 3.2 0.00 0.00 0.00 53 1013.3
20210919191221 31 155 3.2 4.8 0.00 0.00 0.00 53 1013.5
20210919190720 30 208 0.0 1.6 0.00 0.00 0.00 54 1013.4
20210919190215 30 203 9.7 14.5 0.00 0.00 0.00 52 1013.4
20210919185714 30 235 8.0 11.3 0.00 0.00 0.00 54 1013.6
20210919185214 30 211 6.4 11.3 0.00 0.00 0.00 55 1014.0
20210919184712 31 199 11.3 14.5 0.00 0.00 0.00 54 1014.0
20210919184208 30 325 4.8 8.0 0.00 0.00 0.00 55 1013.8
20210919183707 30 222 6.4 11.3 0.00 0.00 0.00 56 1013.9
20210919183204 30 232 12.9 14.5 0.00 0.00 0.00 54 1014.0
20210919182705 30 223 4.8 8.0 0.00 0.00 0.00 55 1013.9
20210919182202 30 194 6.4 8.0 0.00 0.00 0.00 55 1014.2
20210919181701 30 200 3.2 4.8 0.00 0.00 0.00 55 1014.4
20210919181159 30 26 1.6 4.8 0.00 0.00 0.00 57 1014.8
20210919180657 30 223 4.8 8.0 0.00 0.00 0.00 59 1014.8
20210919180155 30 222 4.8 11.3 0.00 0.00 0.00 58 1014.5
20210919175655 30 288 3.2 4.8 0.00 0.00 0.00 59 1015.1
20210919175153 30 296 3.2 4.8 0.00 0.00 0.00 57 1015.1
20210919174652 30 234 4.8 9.7 0.00 0.00 0.00 59 1015.2
20210919174152 30 233 1.6 1.6 0.00 0.00 0.00 59 1015.3
20210919173650 30 221 3.2 3.2 0.00 0.00 0.00 60 1015.7
20210919173147 28 231 1.6 3.2 0.00 0.00 0.00 62 1015.6
20210919172646 28 201 6.4 12.9 0.00 0.00 0.00 64 1015.7
20210919172142 28 235 9.7 9.7 0.00 0.00 0.00 64 1015.7
20210919171639 28 211 1.6 1.6 0.00 0.00 0.00 63 1015.8
20210919171135 28 208 8.0 11.3 0.00 0.00 0.00 63 1015.8
20210919170633 28 221 6.4 12.9 0.00 0.00 0.00 63 1015.9
20210919170133 28 213 9.7 14.5 0.00 0.00 0.00 64 1015.9
20210919165630 28 202 4.8 4.8 0.00 0.00 0.00 63 1015.8
20210919165120 28 202 8.0 9.7 0.00 0.00 0.00 62 1015.9
20210919164618 28 199 8.0 11.3 0.00 0.00 0.00 65 1016.1
20210919164118 28 237 3.2 4.8 0.00 0.00 0.00 65 1016.1
20210919163617 28 194 4.8 8.0 0.00 0.00 0.00 64 1016.2
20210919163114 28 210 8.0 11.3 0.00 0.00 0.00 64 1016.2
20210919162614 28 234 3.2 8.0 0.00 0.00 0.00 63 1016.2
20210919162113 28 263 6.4 11.3 0.00 0.00 0.00 63 1016.3
20210919161613 29 202 3.2 4.8 0.00 0.00 0.00 63 1016.2
20210919161111 29 215 8.0 11.3 0.00 0.00 0.00 61 1016.6
20210919160611 28 190 4.8 4.8 0.00 0.00 0.00 64 1016.5
20210919160109 28 62 4.8 4.8 0.00 0.00 0.00 66 1016.4
20210919155609 28 230 6.4 16.1 0.00 0.00 0.00 65 1016.8
20210919155107 28 203 0.0 0.0 0.00 0.00 0.00 66 1016.6
20210919154607 28 222 1.6 1.6 0.00 0.00 0.00 64 1016.6
20210919154106 28 237 3.2 4.8 0.00 0.00 0.00 66 1016.9
20210919153604 28 193 0.0 0.0 0.00 0.00 0.00 66 1016.9
20210919153101 27 214 1.6 3.2 0.00 0.00 0.00 67 1016.9
20210919152601 26 201 3.2 4.8 0.00 0.00 0.00 70 1016.9
20210919152059 27 157 3.2 3.2 0.00 0.00 0.00 69 1016.9
20210919151558 27 188 0.0 0.0 0.00 0.00 0.00 68 1016.8
20210919151057 27 215 3.2 3.2 0.00 0.00 0.00 70 1017.0
20210919150552 26 196 3.2 3.2 0.00 0.00 0.00 71 1017.0
20210919150052 26 216 1.6 3.2 0.00 0.00 0.00 72 1017.2
20210919145550 26 225 4.8 4.8 0.00 0.00 0.00 74 1016.9
20210919145050 26 218 4.8 8.0 0.00 0.00 0.00 74 1017.1
20210919144548 26 206 3.2 8.0 0.00 0.00 0.00 72 1017.1
20210919144046 26 205 0.0 1.6 0.00 0.00 0.00 76 1017.1
20210919143545 26 186 0.0 1.6 0.00 0.00 0.00 76 1017.1
20210919143044 25 220 1.6 1.6 0.00 0.00 0.00 77 1017.2
20210919142542 25 184 0.0 0.0 0.00 0.00 0.00 78 1016.8
20210919142041 24 208 1.6 1.6 0.00 0.00 0.00 80 1017.2
20210919141540 24 208 3.2 4.8 0.00 0.00 0.00 81 1017.1
20210919141037 23 227 3.2 3.2 0.00 0.00 0.00 83 1016.9
20210919140536 23 191 4.8 4.8 0.00 0.00 0.00 84 1016.8
20210919140035 23 207 1.6 1.6 0.00 0.00 0.00 85 1017.0
20210919135533 22 201 0.0 1.6 0.00 0.00 0.00 85 1016.9
20210919135032 22 195 1.6 3.2 0.00 0.00 0.00 86 1016.8
20210919134531 22 188 3.2 3.2 0.00 0.00 0.00 87 1017.0
20210919134030 22 199 0.0 0.0 0.00 0.00 0.00 87 1017.0
20210919133529 22 214 3.2 3.2 0.00 0.00 0.00 88 1016.9
20210919133029 22 220 4.8 4.8 0.00 0.00 0.00 88 1016.8
20210919132528 21 214 1.6 4.8 0.00 0.00 0.00 90 1016.8
20210919132026 21 207 0.0 0.0 0.00 0.00 0.00 91 1017.0
20210919131525 21 191 0.0 1.6 0.00 0.00 0.00 91 1016.9
20210919131019 21 199 0.0 1.6 0.00 0.00 0.00 92 1016.9
20210919130517 21 200 0.0 0.0 0.00 0.00 0.00 92 1016.9
20210919130016 20 203 0.0 1.6 0.00 0.00 0.00 93 1017.0
20210919125514 20 234 0.0 1.6 0.00 0.00 0.00 94 1017.0
20210919125013 20 203 0.0 0.0 0.00 0.00 0.00 94 1016.8
20210919124510 20 153 0.0 0.0 0.00 0.00 0.00 95 1017.0
20210919124009 20 199 0.0 0.0 0.00 0.00 0.00 95 1017.1
20210919123507 20 230 3.2 3.2 0.00 0.00 0.00 95 1017.2
20210919123007 19 227 0.0 0.0 0.00 0.00 0.00 95 1016.9
20210919122505 19 206 0.0 0.0 0.00 0.00 0.00 95 1017.1
20210919122004 19 215 0.0 0.0 0.00 0.00 0.00 95 1016.9
20210919121504 19 215 0.0 0.0 0.00 0.00 0.00 95 1017.0
20210919121003 19 219 0.0 0.0 0.00 0.00 0.00 95 1016.9
20210919120501 19 210 0.0 0.0 0.00 0.00 0.00 95 1016.9
20210919115958 19 236 0.0 0.0 0.00 0.00 0.00 95 1017.0
20210919115457 19 214 0.0 0.0 0.00 0.00 0.00 95 1016.8
20210919114956 19 219 0.0 0.0 0.00 0.00 0.00 95 1016.9
20210919114456 19 215 0.0 0.0 0.00 0.00 0.00 94 1016.7
20210919113955 19 222 0.0 0.0 0.00 0.00 0.00 94 1016.9
20210919113453 19 214 0.0 0.0 0.00 0.00 0.00 94 1016.9
20210919112951 19 223 0.0 0.0 0.00 0.00 0.00 94 1016.9
20210919112451 19 215 0.0 0.0 0.00 0.00 0.00 94 1016.9
20210919111946 20 232 0.0 0.0 0.00 0.00 0.00 95 1017.0
20210919111446 20 204 0.0 0.0 0.00 0.00 0.00 95 1016.9
20210919110945 20 209 0.0 0.0 0.00 0.00 0.00 95 1016.6
20210919110443 20 207 0.0 0.0 0.00 0.00 0.00 95 1016.9
20210919105943 20 224 0.0 0.0 0.00 0.00 0.00 95 1016.7
20210919105439 19 215 0.0 0.0 0.00 0.00 0.00 95 1016.8
20210919104939 18 223 0.0 0.0 0.00 0.00 0.00 95 1016.8
20210919104431 18 215 0.0 0.0 0.00 0.00 0.00 95 1016.8
20210919103931 18 222 0.0 0.0 0.00 0.00 0.00 95 1016.6
20210919103430 18 208 0.0 0.0 0.00 0.00 0.00 95 1016.8
20210919102928 18 210 0.0 0.0 0.00 0.00 0.00 95 1016.6
20210919102428 18 209 0.0 0.0 0.00 0.00 0.00 95 1016.8
20210919101924 18 209 0.0 0.0 0.00 0.00 0.00 95 1016.7
20210919101424 18 212 0.0 0.0 0.00 0.00 0.00 95 1016.6
20210919100921 18 212 0.0 0.0 0.00 0.00 0.00 95 1016.6
20210919100420 18 220 0.0 0.0 0.00 0.00 0.00 95 1016.7
20210919095919 18 204 0.0 0.0 0.00 0.00 0.00 95 1016.7
20210919095418 18 218 0.0 0.0 0.00 0.00 0.00 95 1016.5
20210919094917 18 211 0.0 0.0 0.00 0.00 0.00 95 1016.7
20210919094415 18 204 0.0 0.0 0.00 0.00 0.00 95 1016.7
20210919093914 18 212 0.0 0.0 0.00 0.00 0.00 95 1016.5
20210919093408 18 211 0.0 0.0 0.00 0.00 0.00 95 1016.9
20210919092906 18 211 0.0 0.0 0.00 0.00 0.00 95 1016.6
20210919092403 18 218 0.0 0.0 0.00 0.00 0.00 95 1016.9
20210919091902 18 211 0.0 0.0 0.00 0.00 0.00 95 1016.9
20210919091401 18 208 0.0 0.0 0.00 0.00 0.00 95 1016.8
20210919090900 18 208 0.0 0.0 0.00 0.00 0.00 95 1016.9
20210919090357 18 206 0.0 0.0 0.00 0.00 0.00 95 1016.5
20210919085854 18 208 0.0 0.0 0.00 0.00 0.00 95 1016.6
20210919085355 18 206 0.0 0.0 0.00 0.00 0.00 95 1016.9
20210919084852 18 208 0.0 0.0 0.00 0.00 0.00 95 1017.1
20210919084351 18 208 0.0 0.0 0.00 0.00 0.00 95 1017.0
20210919083850 18 208 0.0 0.0 0.00 0.00 0.00 95 1017.1
20210919083346 18 211 0.0 0.0 0.00 0.00 0.00 95 1017.0
20210919082846 19 211 0.0 0.0 0.00 0.00 0.00 95 1017.2
20210919082344 19 208 0.0 0.0 0.00 0.00 0.00 95 1017.2
20210919081843 19 205 0.0 0.0 0.00 0.00 0.00 95 1017.3
20210919081342 19 208 0.0 0.0 0.00 0.00 0.00 95 1017.2
20210919080840 19 220 0.0 0.0 0.00 0.00 0.00 95 1017.2
20210919080340 19 234 0.0 0.0 0.00 0.00 0.00 95 1017.4
20210919075839 19 218 0.0 0.0 0.00 0.00 0.00 95 1017.3
20210919075339 19 206 0.0 0.0 0.00 0.00 0.00 95 1017.4
20210919074837 19 234 0.0 0.0 0.00 0.00 0.00 95 1017.6
20210919074337 19 213 0.0 0.0 0.00 0.00 0.00 95 1017.4
20210919073837 19 208 0.0 0.0 0.00 0.00 0.00 95 1017.3
20210919073335 19 208 0.0 0.0 0.00 0.00 0.00 95 1017.3
20210919072834 19 210 0.0 0.0 0.00 0.00 0.00 95 1017.5
20210919072331 19 211 0.0 0.0 0.00 0.00 0.00 95 1017.4
20210919071827 19 211 0.0 0.0 0.00 0.00 0.00 95 1017.5
20210919071326 19 208 0.0 0.0 0.00 0.00 0.00 95 1017.3
20210919070824 19 215 0.0 0.0 0.00 0.00 0.00 95 1017.4
20210919070322 19 215 0.0 0.0 0.00 0.00 0.00 95 1017.5
20210919065822 19 211 0.0 0.0 0.00 0.00 0.00 95 1017.5
20210919065320 19 215 0.0 0.0 0.00 0.00 0.00 94 1017.6
20210919064819 20 212 0.0 0.0 0.00 0.00 0.00 94 1017.6
20210919064318 20 213 0.0 0.0 0.00 0.00 0.00 94 1017.6